createdAt,value
2022-10-23T00:00:20.060Z,5.78
2022-10-23T00:02:53.872Z,5.65
2022-10-23T00:05:22.546Z,6.25
2022-10-23T00:07:51.760Z,6.45
2022-10-23T00:10:20.614Z,6.35
2022-10-23T00:12:48.760Z,6.18
2022-10-23T00:15:19.403Z,5.93
2022-10-23T00:17:46.882Z,6.03
2022-10-23T00:20:16.114Z,5.53
2022-10-23T00:22:43.365Z,6.05
2022-10-23T00:25:11.271Z,6.38
2022-10-23T00:27:38.750Z,6.75
2022-10-23T00:30:06.754Z,5.80
2022-10-23T00:32:34.022Z,7.40
2022-10-23T00:35:01.372Z,5.93
2022-10-23T00:37:28.643Z,5.15
2022-10-23T00:39:56.228Z,5.82
2022-10-23T00:42:24.033Z,5.50
2022-10-23T00:44:51.288Z,5.43
2022-10-23T00:47:18.836Z,5.95
2022-10-23T00:49:46.143Z,6.18
2022-10-23T00:52:14.085Z,5.40
2022-10-23T00:54:43.225Z,5.00
2022-10-23T00:57:15.661Z,6.25
2022-10-23T00:59:43.563Z,6.03
2022-10-23T01:02:10.915Z,5.30
2022-10-23T01:04:38.605Z,5.70
2022-10-23T01:07:26.124Z,4.88
2022-10-23T01:10:07.433Z,5.70
2022-10-23T01:12:57.096Z,5.07
2022-10-23T01:15:39.481Z,5.45
2022-10-23T01:18:16.407Z,6.25
2022-10-23T01:21:05.545Z,5.45
2022-10-23T01:24:05.232Z,6.10
2022-10-23T01:26:46.453Z,5.72
2022-10-23T01:29:29.870Z,5.57
2022-10-23T01:32:09.630Z,5.30
2022-10-23T01:35:01.289Z,5.78
2022-10-23T01:37:39.934Z,5.57
2022-10-23T01:40:21.457Z,5.47
2022-10-23T01:42:54.615Z,5.10
2022-10-23T01:45:34.399Z,5.25
2022-10-23T01:48:03.583Z,5.50
2022-10-23T01:50:32.204Z,5.65
2022-10-23T01:53:04.893Z,5.25
2022-10-23T01:55:33.648Z,5.75
2022-10-23T01:58:07.314Z,7.55
2022-10-23T02:00:41.299Z,6.00
2022-10-23T02:03:11.243Z,5.47
2022-10-23T02:05:39.350Z,5.32
2022-10-23T02:08:07.064Z,5.57
2022-10-23T02:10:45.627Z,5.80
2022-10-23T02:13:23.477Z,5.13
2022-10-23T02:16:03.045Z,5.57
2022-10-23T02:19:12.690Z,5.85
2022-10-23T02:22:21.524Z,5.72
2022-10-23T02:24:51.559Z,5.18
2022-10-23T02:27:31.838Z,4.22
2022-10-23T02:30:06.681Z,5.28
2022-10-23T02:32:38.742Z,4.70
2022-10-23T02:35:06.830Z,5.50
2022-10-23T02:37:34.386Z,5.07
2022-10-23T02:40:05.045Z,4.78
2022-10-23T02:42:48.136Z,5.00
2022-10-23T02:45:30.991Z,5.22
2022-10-23T02:48:11.540Z,4.90
2022-10-23T02:50:53.469Z,5.07
2022-10-23T02:53:39.709Z,4.53
2022-10-23T02:56:23.020Z,5.50
2022-10-23T02:59:40.873Z,5.13
2022-10-23T03:02:28.607Z,4.60
2022-10-23T03:05:00.574Z,5.50
2022-10-23T03:07:28.141Z,4.80
2022-10-23T03:10:03.455Z,4.97
2022-10-23T03:12:32.165Z,4.88
2022-10-23T03:14:59.783Z,5.35
2022-10-23T03:17:27.128Z,4.53
2022-10-23T03:19:57.796Z,5.15
2022-10-23T03:22:25.292Z,5.15
2022-10-23T03:24:52.564Z,4.70
2022-10-23T03:27:19.856Z,4.55
2022-10-23T03:29:47.149Z,5.15
2022-10-23T03:32:17.379Z,4.80
2022-10-23T03:34:45.195Z,4.70
2022-10-23T03:37:12.455Z,4.50
2022-10-23T03:39:39.762Z,5.05
2022-10-23T03:42:07.069Z,5.05
2022-10-23T03:44:34.986Z,4.75
2022-10-23T03:47:03.163Z,4.13
2022-10-23T03:49:30.419Z,5.20
2022-10-23T03:52:04.305Z,4.40
2022-10-23T03:54:32.280Z,4.70
2022-10-23T03:56:59.850Z,3.85
2022-10-23T03:59:27.911Z,4.80
2022-10-23T04:01:55.653Z,4.22
2022-10-23T04:04:25.129Z,4.10
2022-10-23T04:06:52.400Z,4.40
2022-10-23T04:09:20.693Z,4.65
2022-10-23T04:11:48.014Z,4.82
2022-10-23T04:14:15.269Z,4.70
2022-10-23T04:16:42.648Z,4.50
2022-10-23T04:19:10.149Z,4.68
2022-10-23T04:21:37.539Z,4.13
2022-10-23T04:24:05.266Z,4.40
2022-10-23T04:26:32.929Z,3.80
2022-10-23T04:29:00.498Z,4.20
2022-10-23T04:31:29.777Z,4.07
2022-10-23T04:33:57.235Z,3.70
2022-10-23T04:36:31.699Z,4.00
2022-10-23T04:39:08.318Z,4.68
2022-10-23T04:41:38.886Z,3.95
2022-10-23T04:44:06.742Z,4.03
2022-10-23T04:46:37.748Z,4.40
2022-10-23T04:49:05.620Z,4.10
2022-10-23T04:54:46.565Z,4.13
2022-10-23T04:57:32.652Z,3.95
2022-10-23T05:00:08.517Z,4.25
2022-10-23T05:02:42.589Z,3.60
2022-10-23T05:05:10.785Z,3.97
2022-10-23T05:07:55.880Z,3.25
2022-10-23T05:10:38.455Z,4.63
2022-10-23T05:13:19.647Z,3.92
2022-10-23T05:15:51.823Z,3.40
2022-10-23T05:18:45.787Z,3.58
2022-10-23T05:21:26.970Z,3.67
2022-10-23T05:23:54.803Z,4.22
2022-10-23T05:26:22.944Z,3.33
2022-10-23T05:28:52.829Z,4.30
2022-10-23T05:31:22.357Z,4.15
2022-10-23T05:33:52.544Z,2.95
2022-10-23T05:36:23.659Z,3.45
2022-10-23T05:38:57.166Z,3.72
2022-10-23T05:41:24.488Z,4.18
2022-10-23T05:43:51.828Z,3.45
2022-10-23T05:46:51.444Z,3.08
2022-10-23T05:49:41.835Z,3.30
2022-10-23T05:52:27.776Z,3.28
2022-10-23T05:55:13.521Z,3.53
2022-10-23T05:57:44.150Z,3.67
2022-10-23T06:00:14.148Z,3.65
2022-10-23T06:02:41.449Z,3.53
2022-10-23T06:05:31.428Z,3.40
2022-10-23T06:08:18.892Z,4.38
2022-10-23T06:10:48.619Z,3.75
2022-10-23T06:13:16.014Z,3.80
2022-10-23T06:15:43.744Z,2.97
2022-10-23T06:18:18.788Z,3.63
2022-10-23T06:20:53.899Z,4.22
2022-10-23T06:23:25.498Z,4.78
2022-10-23T06:26:13.535Z,3.58
2022-10-23T06:29:06.035Z,3.23
2022-10-23T06:31:33.535Z,3.80
2022-10-23T06:34:02.443Z,3.30
2022-10-23T06:36:31.443Z,3.75
2022-10-23T06:39:10.201Z,3.60
2022-10-23T06:41:56.158Z,3.70
2022-10-23T06:44:56.341Z,3.55
2022-10-23T06:47:42.289Z,3.28
2022-10-23T06:50:37.734Z,4.05
2022-10-23T06:53:09.628Z,4.28
2022-10-23T06:55:40.194Z,3.72
2022-10-23T06:58:10.686Z,4.15
2022-10-23T07:00:53.369Z,3.95
2022-10-23T07:03:20.769Z,3.78
2022-10-23T07:05:48.917Z,3.83
2022-10-23T07:08:16.805Z,3.42
2022-10-23T07:10:47.906Z,3.33
2022-10-23T07:13:15.208Z,3.42
2022-10-23T07:16:12.882Z,3.83
2022-10-23T07:18:40.828Z,4.75
2022-10-23T07:21:37.381Z,5.03
2022-10-23T07:24:25.147Z,5.00
2022-10-23T07:26:55.496Z,5.03
2022-10-23T07:29:24.989Z,4.13
2022-10-23T07:31:52.371Z,3.85
2022-10-23T07:34:38.498Z,3.80
2022-10-23T07:37:34.904Z,3.60
2022-10-23T07:40:05.928Z,3.05
2022-10-23T07:42:38.852Z,2.97
2022-10-23T07:45:07.546Z,3.70
2022-10-23T07:47:36.147Z,3.05
2022-10-23T07:50:04.280Z,2.90
2022-10-23T07:52:35.045Z,3.05
2022-10-23T07:55:12.826Z,3.05
2022-10-23T07:57:53.298Z,3.20
2022-10-23T08:00:28.668Z,3.20
2022-10-23T08:03:12.748Z,2.80
2022-10-23T08:05:40.323Z,3.08
2022-10-23T08:08:07.696Z,2.67
2022-10-23T08:10:36.951Z,2.45
2022-10-23T08:13:06.096Z,2.85
2022-10-23T08:15:53.044Z,2.17
2022-10-23T08:18:48.214Z,2.10
2022-10-23T08:21:17.058Z,2.53
2022-10-23T08:23:45.347Z,2.50
2022-10-23T08:26:13.172Z,2.40
2022-10-23T08:28:41.944Z,1.90
2022-10-23T08:31:13.065Z,2.00
2022-10-23T08:33:41.773Z,2.15
2022-10-23T08:36:24.105Z,2.25
2022-10-23T08:38:55.915Z,2.17
2022-10-23T08:41:39.148Z,2.15
2022-10-23T08:44:30.956Z,2.22
2022-10-23T08:47:42.624Z,2.08
2022-10-23T08:50:32.337Z,1.60
2022-10-23T08:53:03.012Z,1.95
2022-10-23T08:55:35.204Z,2.45
2022-10-23T08:58:31.822Z,2.33
2022-10-23T09:00:59.328Z,1.90
2022-10-23T09:03:27.548Z,2.03
2022-10-23T09:06:08.807Z,1.85
2022-10-23T09:08:59.336Z,2.00
2022-10-23T09:11:29.830Z,1.98
2022-10-23T09:14:27.763Z,2.05
2022-10-23T09:17:06.901Z,1.98
2022-10-23T09:19:34.239Z,1.90
2022-10-23T09:22:01.724Z,2.05
2022-10-23T09:24:33.370Z,1.45
2022-10-23T09:27:00.941Z,1.83
2022-10-23T09:29:32.769Z,2.13
2022-10-23T09:32:03.144Z,1.80
2022-10-23T09:34:32.576Z,1.88
2022-10-23T09:37:03.014Z,2.15
2022-10-23T09:39:34.086Z,2.05
2022-10-23T09:42:20.756Z,1.55
2022-10-23T09:44:51.147Z,1.92
2022-10-23T09:47:22.572Z,1.58
2022-10-23T09:49:55.625Z,1.70
2022-10-23T09:52:36.739Z,2.42
2022-10-23T09:55:20.501Z,2.00
2022-10-23T09:57:48.117Z,1.80
2022-10-23T10:00:23.383Z,2.75
2022-10-23T10:03:04.193Z,1.70
2022-10-23T10:05:42.271Z,1.88
2022-10-23T10:11:01.294Z,1.83
2022-10-23T10:13:34.074Z,1.92
2022-10-23T10:19:36.047Z,1.90
2022-10-23T10:22:25.947Z,2.13
2022-10-23T10:25:16.653Z,1.52
2022-10-23T10:28:07.456Z,1.90
2022-10-23T10:30:56.878Z,1.85
2022-10-23T10:33:42.761Z,2.25
2022-10-23T10:36:29.000Z,2.00
2022-10-23T10:39:05.442Z,1.73
2022-10-23T10:41:52.568Z,3.00
2022-10-23T10:44:36.180Z,2.13
2022-10-23T10:47:21.298Z,1.90
2022-10-23T10:50:07.476Z,1.80
2022-10-23T10:52:55.803Z,1.45
2022-10-23T10:55:38.311Z,2.08
2022-10-23T10:58:20.157Z,1.70
2022-10-23T11:00:53.119Z,2.28
2022-10-23T11:03:45.854Z,1.90
2022-10-23T11:06:18.602Z,1.73
2022-10-23T11:08:57.289Z,2.30
2022-10-23T11:11:43.528Z,2.08
2022-10-23T11:14:19.589Z,1.73
2022-10-23T11:16:51.891Z,1.60
2022-10-23T11:19:34.327Z,1.55
2022-10-23T11:22:27.845Z,1.73
2022-10-23T11:25:23.051Z,1.60
2022-10-23T11:28:03.686Z,2.10
2022-10-23T11:30:55.702Z,2.97
2022-10-23T11:33:28.763Z,2.28
2022-10-23T11:36:00.329Z,1.95
2022-10-23T11:38:35.038Z,2.25
2022-10-23T11:43:35.455Z,1.92
2022-10-23T11:46:29.609Z,1.85
2022-10-23T11:48:57.607Z,1.70
2022-10-23T11:52:01.164Z,1.90
2022-10-23T11:54:28.936Z,1.63
2022-10-23T11:57:10.927Z,1.90
2022-10-23T11:59:50.159Z,1.73
2022-10-23T12:02:31.731Z,1.60
2022-10-23T12:05:04.621Z,1.75
2022-10-23T12:07:38.173Z,1.98
2022-10-23T12:10:19.117Z,1.90
2022-10-23T12:12:56.608Z,1.40
2022-10-23T12:15:25.923Z,1.70
2022-10-23T12:17:56.270Z,1.83
2022-10-23T12:20:37.786Z,1.52
2022-10-23T12:23:16.395Z,1.92
2022-10-23T12:25:43.646Z,1.75
2022-10-23T12:28:22.987Z,1.80
2022-10-23T12:31:14.477Z,1.73
2022-10-23T12:33:52.646Z,1.60
2022-10-23T12:36:28.783Z,1.88
2022-10-23T12:38:58.527Z,1.90
2022-10-23T12:41:31.422Z,1.60
2022-10-23T12:44:04.258Z,2.15
2022-10-23T12:46:39.180Z,1.90
2022-10-23T12:49:19.526Z,1.80
2022-10-23T12:52:17.540Z,2.03
2022-10-23T12:54:44.834Z,2.05
2022-10-23T12:57:23.955Z,1.70
2022-10-23T12:59:57.432Z,1.85
2022-10-23T13:02:29.756Z,2.00
2022-10-23T13:05:00.861Z,1.85
2022-10-23T13:07:31.377Z,2.08
2022-10-23T13:10:02.610Z,1.70
2022-10-23T13:12:35.442Z,2.20
2022-10-23T13:15:10.770Z,2.30
2022-10-23T13:17:44.116Z,2.25
2022-10-23T13:20:17.555Z,1.88
2022-10-23T13:22:47.146Z,1.83
2022-10-23T13:25:32.744Z,2.40
2022-10-23T13:28:08.518Z,2.20
2022-10-23T13:30:39.013Z,3.00
2022-10-23T13:33:21.147Z,1.85
2022-10-23T13:36:08.870Z,1.73
2022-10-23T13:38:40.632Z,2.20
2022-10-23T13:41:18.205Z,1.80
2022-10-23T13:43:47.367Z,1.80
2022-10-23T13:46:20.282Z,2.08
2022-10-23T13:48:47.841Z,3.13
2022-10-23T13:51:27.514Z,2.25
2022-10-23T13:53:57.279Z,2.47
2022-10-23T13:56:26.785Z,2.55
2022-10-23T13:58:54.118Z,2.38
2022-10-23T14:01:28.075Z,2.42
2022-10-23T14:03:56.905Z,2.85
2022-10-23T14:06:24.432Z,2.50
2022-10-23T14:08:52.167Z,2.38
2022-10-23T14:11:20.968Z,2.45
2022-10-23T14:13:49.187Z,2.20
2022-10-23T14:16:18.923Z,2.20
2022-10-23T14:18:46.530Z,2.15
2022-10-23T14:21:16.940Z,2.15
2022-10-23T14:23:44.230Z,1.85
2022-10-23T14:26:13.886Z,2.13
2022-10-23T14:28:42.132Z,1.80
2022-10-23T14:31:12.682Z,1.75
2022-10-23T14:33:40.358Z,2.00
2022-10-23T14:36:08.444Z,1.85
2022-10-23T14:38:36.409Z,2.42
2022-10-23T14:41:09.474Z,2.35
2022-10-23T14:43:36.868Z,2.15
2022-10-23T14:46:18.906Z,2.00
2022-10-23T14:48:49.418Z,1.80
2022-10-23T14:51:21.502Z,2.10
2022-10-23T14:53:56.393Z,2.92
2022-10-23T14:56:26.356Z,2.33
2022-10-23T14:58:54.199Z,2.38
2022-10-23T15:01:21.632Z,2.17
2022-10-23T15:03:54.631Z,2.30
2022-10-23T15:06:21.864Z,2.30
2022-10-23T15:08:56.580Z,1.70
2022-10-23T15:13:52.867Z,2.75
2022-10-23T15:16:21.332Z,2.70
2022-10-23T15:18:48.995Z,2.25
2022-10-23T15:21:16.343Z,3.00
2022-10-23T15:23:45.710Z,2.75
2022-10-23T15:26:20.613Z,2.25
2022-10-23T15:28:53.184Z,2.00
2022-10-23T15:31:40.934Z,2.17
2022-10-23T15:34:10.659Z,2.38
2022-10-23T15:36:38.766Z,2.47
2022-10-23T15:39:08.928Z,3.17
2022-10-23T15:41:38.068Z,2.58
2022-10-23T15:44:08.047Z,2.70
2022-10-23T15:46:36.167Z,2.80
2022-10-23T15:49:04.013Z,2.67
2022-10-23T15:51:34.662Z,2.90
2022-10-23T15:54:01.978Z,3.30
2022-10-23T15:56:29.277Z,3.20
2022-10-23T15:58:56.613Z,3.25
2022-10-23T16:01:23.976Z,3.50
2022-10-23T16:03:51.362Z,3.08
2022-10-23T16:06:19.815Z,2.53
2022-10-23T16:08:47.457Z,2.97
2022-10-23T16:11:29.928Z,3.30
2022-10-23T16:13:58.709Z,3.22
2022-10-23T16:16:27.787Z,3.05
2022-10-23T16:18:55.811Z,4.00
2022-10-23T16:21:25.890Z,3.55
2022-10-23T16:23:55.601Z,3.47
2022-10-23T16:26:23.817Z,3.78
2022-10-23T16:29:02.268Z,3.85
2022-10-23T16:31:30.053Z,2.95
2022-10-23T16:34:02.173Z,3.40
2022-10-23T16:36:31.291Z,3.75
2022-10-23T16:39:27.099Z,3.47
2022-10-23T16:42:13.038Z,3.15
2022-10-23T16:44:58.892Z,3.47
2022-10-23T16:47:26.197Z,3.17
2022-10-23T16:49:53.450Z,3.38
2022-10-23T16:52:20.718Z,3.53
2022-10-23T16:54:48.068Z,3.30
2022-10-23T16:57:15.349Z,3.08
2022-10-23T16:59:42.746Z,4.10
2022-10-23T17:02:13.213Z,3.40
2022-10-23T17:04:40.673Z,3.47
2022-10-23T17:07:08.046Z,4.90
2022-10-23T17:09:35.772Z,3.83
2022-10-23T17:12:03.257Z,4.28
2022-10-23T17:14:30.586Z,3.67
2022-10-23T17:17:01.466Z,3.33
2022-10-23T17:19:44.516Z,4.55
2022-10-23T17:22:13.627Z,3.45
2022-10-23T17:24:42.069Z,3.35
2022-10-23T17:27:09.560Z,3.30
2022-10-23T17:29:36.827Z,3.17
2022-10-23T17:32:04.378Z,4.00
2022-10-23T17:34:31.753Z,3.92
2022-10-23T17:36:59.063Z,3.88
2022-10-23T17:39:29.204Z,3.47
2022-10-23T17:41:57.085Z,3.75
2022-10-23T17:44:24.511Z,3.50
2022-10-23T17:46:53.709Z,3.50
2022-10-23T17:49:22.679Z,3.53
2022-10-23T17:51:55.011Z,3.97
2022-10-23T17:54:22.675Z,3.50
2022-10-23T17:56:49.919Z,3.63
2022-10-23T17:59:20.844Z,3.88
2022-10-23T18:01:49.160Z,3.50
2022-10-23T18:04:19.422Z,3.85
2022-10-23T18:06:52.687Z,3.88
2022-10-23T18:09:21.983Z,3.97
2022-10-23T18:11:49.603Z,3.83
2022-10-23T18:14:18.642Z,3.55
2022-10-23T18:16:46.410Z,3.65
2022-10-23T18:19:15.660Z,3.10
2022-10-23T18:21:43.069Z,3.80
2022-10-23T18:24:11.348Z,2.42
2022-10-23T18:26:41.204Z,2.95
2022-10-23T18:29:09.331Z,3.13
2022-10-23T18:31:37.780Z,3.35
2022-10-23T18:34:23.295Z,2.97
2022-10-23T18:36:52.119Z,3.10
2022-10-23T18:39:23.836Z,2.97
2022-10-23T18:41:53.916Z,2.92
2022-10-23T18:44:22.490Z,3.22
2022-10-23T18:46:50.919Z,2.90
2022-10-23T18:49:19.348Z,3.53
2022-10-23T18:51:47.413Z,3.33
2022-10-23T18:54:17.075Z,3.33
2022-10-23T18:56:44.444Z,3.38
2022-10-23T18:59:15.046Z,3.10
2022-10-23T19:01:43.440Z,2.90
2022-10-23T19:04:12.596Z,2.80
2022-10-23T19:06:40.273Z,2.35
2022-10-23T19:09:09.128Z,2.65
2022-10-23T19:11:37.281Z,2.55
2022-10-23T19:14:05.694Z,2.88
2022-10-23T19:16:44.259Z,2.63
2022-10-23T19:19:17.663Z,2.20
2022-10-23T19:21:46.175Z,2.35
2022-10-23T19:24:29.480Z,2.47
2022-10-23T19:26:59.803Z,2.90
2022-10-23T19:29:28.250Z,3.38
2022-10-23T19:31:55.933Z,2.30
2022-10-23T19:34:24.744Z,2.13
2022-10-23T19:36:54.540Z,1.95
2022-10-23T19:39:22.746Z,2.42
2022-10-23T19:41:51.627Z,2.30
2022-10-23T19:44:19.978Z,1.73
2022-10-23T19:46:48.354Z,1.80
2022-10-23T19:49:16.075Z,1.67
2022-10-23T19:51:50.995Z,1.95
2022-10-23T19:54:20.221Z,1.52
2022-10-23T19:56:48.342Z,1.10
2022-10-23T19:59:15.764Z,2.20
2022-10-23T20:01:46.333Z,1.80
2022-10-23T20:04:17.757Z,1.38
2022-10-23T20:06:45.035Z,1.40
2022-10-23T20:09:12.549Z,1.75
2022-10-23T20:11:40.588Z,1.25
2022-10-23T20:14:08.164Z,1.25
2022-10-23T20:16:37.707Z,1.35
2022-10-23T20:19:08.368Z,1.38
2022-10-23T20:21:39.203Z,1.70
2022-10-23T20:24:07.658Z,1.67
2022-10-23T20:26:35.108Z,1.88
2022-10-23T20:29:02.411Z,1.90
2022-10-23T20:31:29.705Z,2.10
2022-10-23T20:33:57.200Z,2.40
2022-10-23T20:36:30.313Z,1.98
2022-10-23T20:38:59.562Z,1.88
2022-10-23T20:41:28.823Z,2.08
2022-10-23T20:43:56.332Z,2.22
2022-10-23T20:46:23.963Z,1.40
2022-10-23T20:48:52.157Z,1.70
2022-10-23T20:51:22.006Z,1.67
2022-10-23T20:53:50.716Z,2.25
2022-10-23T20:56:23.144Z,1.40
2022-10-23T20:58:50.716Z,1.60
2022-10-23T21:01:18.817Z,1.70
2022-10-23T21:03:51.249Z,1.70
2022-10-23T21:06:19.262Z,1.88
2022-10-23T21:08:46.819Z,1.55
2022-10-23T21:11:16.838Z,2.38
2022-10-23T21:13:44.597Z,1.98
2022-10-23T21:16:16.664Z,1.90
2022-10-23T21:18:46.675Z,1.88
2022-10-23T21:21:17.383Z,2.60
2022-10-23T21:23:45.763Z,1.98
2022-10-23T21:26:14.129Z,2.05
2022-10-23T21:28:50.774Z,2.67
2022-10-23T21:31:28.541Z,2.15
2022-10-23T21:33:56.036Z,1.88
2022-10-23T21:36:24.105Z,1.88
2022-10-23T21:38:54.575Z,2.53
2022-10-23T21:41:25.300Z,2.35
2022-10-23T21:43:57.441Z,2.28
2022-10-23T21:46:25.916Z,2.08
2022-10-23T21:48:53.616Z,2.08
2022-10-23T21:51:29.335Z,1.85
2022-10-23T21:53:57.201Z,2.35
2022-10-23T21:56:26.551Z,3.17
2022-10-23T21:58:54.276Z,2.15
2022-10-23T22:01:22.265Z,2.40
2022-10-23T22:03:49.913Z,3.17
2022-10-23T22:06:20.863Z,2.10
2022-10-23T22:08:48.746Z,2.05
2022-10-23T22:11:16.580Z,2.28
2022-10-23T22:13:44.727Z,2.97
2022-10-23T22:16:13.687Z,2.42
2022-10-23T22:18:41.517Z,2.17
2022-10-23T22:21:17.840Z,2.45
2022-10-23T22:23:45.416Z,2.60
2022-10-23T22:26:28.116Z,2.45
2022-10-23T22:28:58.079Z,2.55
2022-10-23T22:31:27.630Z,2.50
2022-10-23T22:33:56.160Z,3.03
2022-10-23T22:36:23.908Z,2.55
2022-10-23T22:38:51.783Z,2.92
2022-10-23T22:41:19.744Z,2.38
2022-10-23T22:43:47.179Z,2.63
2022-10-23T22:46:19.529Z,3.13
2022-10-23T22:48:46.866Z,3.15
2022-10-23T22:51:19.262Z,2.78
2022-10-23T22:53:46.730Z,3.47
2022-10-23T22:56:20.055Z,2.47
2022-10-23T22:58:47.876Z,2.30
2022-10-23T23:01:25.707Z,3.15
2022-10-23T23:03:53.873Z,3.00
2022-10-23T23:06:21.598Z,2.63
2022-10-23T23:08:50.297Z,2.83
2022-10-23T23:11:19.792Z,2.88
2022-10-23T23:13:47.969Z,2.90
2022-10-23T23:16:29.846Z,4.15
2022-10-23T23:19:02.184Z,3.13
2022-10-23T23:21:30.410Z,2.45
2022-10-23T23:23:58.142Z,3.03
2022-10-23T23:26:25.473Z,2.40
2022-10-23T23:28:54.328Z,2.95
2022-10-23T23:31:26.273Z,2.67
2022-10-23T23:33:55.654Z,3.05
2022-10-23T23:36:25.844Z,2.65
2022-10-23T23:38:53.344Z,2.75
2022-10-23T23:41:22.209Z,2.38
2022-10-23T23:43:49.815Z,1.67
2022-10-23T23:46:17.992Z,2.47
2022-10-23T23:48:48.369Z,2.30
2022-10-23T23:51:18.343Z,2.90
2022-10-23T23:53:45.704Z,2.53
2022-10-23T23:56:13.726Z,2.25
2022-10-23T23:58:41.083Z,2.30
